createdAt,value
2023-01-07T00:03:21.130Z,10.00
2023-01-07T00:08:24.662Z,10.00
2023-01-07T00:13:28.184Z,9.90
2023-01-07T00:18:34.312Z,9.80
2023-01-07T00:23:39.748Z,9.80
2023-01-07T00:28:46.786Z,9.80
2023-01-07T00:34:07.034Z,9.70
2023-01-07T00:39:15.119Z,9.70
2023-01-07T00:44:18.613Z,9.80
2023-01-07T00:49:24.501Z,9.80
2023-01-07T00:54:28.081Z,9.80
2023-01-07T00:59:31.502Z,9.80
2023-01-07T01:04:36.496Z,9.80
2023-01-07T01:09:39.958Z,9.80
2023-01-07T01:14:43.421Z,9.90
2023-01-07T01:19:48.457Z,9.90
2023-01-07T01:24:53.259Z,10.00
2023-01-07T01:29:56.673Z,10.00
2023-01-07T01:35:01.432Z,10.00
2023-01-07T01:40:05.517Z,10.00
2023-01-07T01:45:12.524Z,10.00
2023-01-07T01:50:22.329Z,9.90
2023-01-07T01:55:34.704Z,9.90
2023-01-07T02:00:38.688Z,9.90
2023-01-07T02:05:44.519Z,10.00
2023-01-07T02:10:48.239Z,10.00
2023-01-07T02:16:00.542Z,10.00
2023-01-07T02:21:26.297Z,9.90
2023-01-07T02:26:59.404Z,9.80
2023-01-07T02:32:26.638Z,9.70
2023-01-07T02:37:41.011Z,9.70
2023-01-07T02:42:55.263Z,9.70
2023-01-07T02:48:03.327Z,9.70
2023-01-07T02:53:09.330Z,9.70
2023-01-07T02:58:43.553Z,9.70
2023-01-07T03:04:05.553Z,9.70
2023-01-07T03:09:16.540Z,9.60
2023-01-07T03:14:23.974Z,9.60
2023-01-07T03:19:32.678Z,9.50
2023-01-07T03:24:37.020Z,9.40
2023-01-07T03:29:40.700Z,9.30
2023-01-07T03:34:46.257Z,9.40
2023-01-07T03:39:51.403Z,9.40
2023-01-07T03:44:55.992Z,9.50
2023-01-07T03:50:01.024Z,9.50
2023-01-07T03:55:05.757Z,9.60
2023-01-07T04:00:12.328Z,9.60
2023-01-07T04:05:17.240Z,9.60
2023-01-07T04:10:20.983Z,9.60
2023-01-07T04:15:24.529Z,9.60
2023-01-07T04:20:29.515Z,9.60
2023-01-07T04:25:35.299Z,9.50
2023-01-07T04:30:39.056Z,9.40
2023-01-07T04:35:47.136Z,9.40
2023-01-07T04:40:50.945Z,9.30
2023-01-07T04:45:56.794Z,9.30
2023-01-07T04:51:01.877Z,9.30
2023-01-07T04:56:06.402Z,9.20
2023-01-07T05:01:11.361Z,9.20
2023-01-07T05:06:16.639Z,9.20
2023-01-07T05:11:22.065Z,9.10
2023-01-07T05:16:26.790Z,9.00
2023-01-07T05:21:32.004Z,9.00
2023-01-07T05:26:36.145Z,9.10
2023-01-07T05:31:41.045Z,9.10
2023-01-07T05:36:46.232Z,9.10
2023-01-07T05:41:49.835Z,9.10
2023-01-07T05:46:53.514Z,9.10
2023-01-07T05:51:58.564Z,9.10
2023-01-07T05:57:02.251Z,9.00
2023-01-07T06:02:06.358Z,9.00
2023-01-07T06:07:12.333Z,9.00
2023-01-07T06:12:16.790Z,8.90
2023-01-07T06:17:20.828Z,8.90
2023-01-07T06:22:25.889Z,8.90
2023-01-07T06:27:29.656Z,9.00
2023-01-07T06:32:33.479Z,9.00
2023-01-07T06:37:39.369Z,9.00
2023-01-07T06:42:43.036Z,9.00
2023-01-07T06:47:48.479Z,9.00
2023-01-07T06:52:53.935Z,9.00
2023-01-07T06:57:58.246Z,9.00
2023-01-07T07:03:01.807Z,9.10
2023-01-07T07:08:07.234Z,9.10
2023-01-07T07:13:12.067Z,9.10
2023-01-07T07:18:15.768Z,9.10
2023-01-07T07:23:20.978Z,9.20
2023-01-07T07:28:25.751Z,9.20
2023-01-07T07:33:29.900Z,9.20
2023-01-07T07:38:35.053Z,9.30
2023-01-07T07:43:39.386Z,9.30
2023-01-07T07:48:43.009Z,9.40
2023-01-07T07:53:48.166Z,9.40
2023-01-07T07:58:51.687Z,9.40
2023-01-07T08:03:55.399Z,9.50
2023-01-07T08:09:00.802Z,9.50
2023-01-07T08:14:04.413Z,9.50
2023-01-07T08:19:07.890Z,9.60
2023-01-07T08:24:13.193Z,9.70
2023-01-07T08:29:16.906Z,9.70
2023-01-07T08:34:20.667Z,9.80
2023-01-07T08:39:25.748Z,9.70
2023-01-07T08:44:29.217Z,9.80
2023-01-07T08:49:33.198Z,9.80
2023-01-07T08:54:38.269Z,9.90
2023-01-07T08:59:43.498Z,9.90
2023-01-07T09:04:47.448Z,9.90
2023-01-07T09:09:52.551Z,10.00
2023-01-07T09:14:56.334Z,10.00
2023-01-07T09:20:03.524Z,10.00
2023-01-07T09:25:09.285Z,10.10
2023-01-07T09:30:13.966Z,10.20
2023-01-07T09:35:17.814Z,10.20
2023-01-07T09:40:27.905Z,10.30
2023-01-07T09:45:35.710Z,10.40
2023-01-07T09:50:51.090Z,10.40
2023-01-07T09:56:11.156Z,10.50
2023-01-07T10:01:24.420Z,10.60
2023-01-07T10:06:43.438Z,10.60
2023-01-07T10:12:07.262Z,10.70
2023-01-07T10:17:22.001Z,10.70
2023-01-07T10:22:32.928Z,10.80
2023-01-07T10:27:42.521Z,10.90
2023-01-07T10:32:47.965Z,11.00
2023-01-07T10:37:52.309Z,11.10
2023-01-07T10:43:02.443Z,11.20
2023-01-07T10:48:24.025Z,11.30
2023-01-07T10:53:35.879Z,11.30
2023-01-07T10:58:43.015Z,11.40
2023-01-07T11:03:50.308Z,11.50
2023-01-07T11:08:54.991Z,11.50
2023-01-07T11:14:03.731Z,11.60
2023-01-07T11:19:09.726Z,11.70
2023-01-07T11:24:30.934Z,11.70
2023-01-07T11:29:39.785Z,11.80
2023-01-07T11:34:56.298Z,11.70
2023-01-07T11:40:00.916Z,11.80
2023-01-07T11:45:16.218Z,11.80
2023-01-07T11:50:26.117Z,11.90
2023-01-07T11:55:30.701Z,11.90
2023-01-07T12:00:35.555Z,12.00
2023-01-07T12:05:40.088Z,12.10
2023-01-07T12:10:44.344Z,12.30
2023-01-07T12:15:54.018Z,12.40
2023-01-07T12:21:25.998Z,12.50
2023-01-07T12:26:36.702Z,12.60
2023-01-07T12:31:52.675Z,12.60
2023-01-07T12:37:01.521Z,12.70
2023-01-07T12:42:10.516Z,12.70
2023-01-07T12:47:31.276Z,12.80
2023-01-07T12:52:44.436Z,12.80
2023-01-07T12:57:58.187Z,12.90
2023-01-07T13:03:11.060Z,13.10
2023-01-07T13:08:24.382Z,13.10
2023-01-07T13:13:33.943Z,13.20
2023-01-07T13:18:38.904Z,13.20
2023-01-07T13:24:07.697Z,13.30
2023-01-07T13:29:22.688Z,13.50
2023-01-07T13:34:40.423Z,13.60
2023-01-07T13:40:02.621Z,13.70
2023-01-07T13:45:12.347Z,13.80
2023-01-07T13:50:26.551Z,13.90
2023-01-07T13:55:41.977Z,13.90
2023-01-07T14:01:03.231Z,14.00
2023-01-07T14:06:44.094Z,14.00
2023-01-07T14:12:24.765Z,13.90
2023-01-07T14:17:35.158Z,13.90
2023-01-07T14:22:48.616Z,13.80
2023-01-07T14:28:08.608Z,13.70
2023-01-07T14:33:20.736Z,13.60
2023-01-07T14:39:07.176Z,13.50
2023-01-07T14:44:30.328Z,13.40
2023-01-07T14:50:03.231Z,13.30
2023-01-07T14:55:27.540Z,13.10
2023-01-07T15:01:09.046Z,13.00
2023-01-07T15:06:21.785Z,12.90
2023-01-07T15:11:44.923Z,12.80
2023-01-07T15:16:55.527Z,12.70
2023-01-07T15:22:08.160Z,12.60
2023-01-07T15:27:20.209Z,12.50
2023-01-07T15:32:36.177Z,12.30
2023-01-07T15:37:46.077Z,12.20
2023-01-07T15:42:52.511Z,12.10
2023-01-07T15:48:09.295Z,12.00
2023-01-07T15:53:20.755Z,11.90
2023-01-07T15:58:30.203Z,11.90
2023-01-07T16:03:39.609Z,11.80
2023-01-07T16:08:45.625Z,11.70
2023-01-07T16:13:58.023Z,11.60
2023-01-07T16:19:04.811Z,11.50
2023-01-07T16:24:08.666Z,11.40
2023-01-07T16:29:20.424Z,11.30
2023-01-07T16:34:57.228Z,11.20
2023-01-07T16:40:01.124Z,11.20
2023-01-07T16:45:21.396Z,11.10
2023-01-07T16:50:41.636Z,10.90
2023-01-07T16:55:50.333Z,10.90
2023-01-07T17:00:55.777Z,10.80
2023-01-07T17:06:04.535Z,10.80
2023-01-07T17:11:17.920Z,10.70
2023-01-07T17:16:34.333Z,10.60
2023-01-07T17:21:44.301Z,10.50
2023-01-07T17:26:47.783Z,10.50
2023-01-07T17:31:51.273Z,10.40
2023-01-07T17:36:56.088Z,10.40
2023-01-07T17:42:17.138Z,10.30
2023-01-07T17:47:22.331Z,10.30
2023-01-07T17:52:27.446Z,10.20
2023-01-07T17:57:30.887Z,10.10
2023-01-07T18:02:34.381Z,10.10
2023-01-07T18:07:39.345Z,10.10
2023-01-07T18:12:43.676Z,10.10
2023-01-07T18:17:47.802Z,10.00
2023-01-07T18:22:52.597Z,9.90
2023-01-07T18:27:56.599Z,9.90
2023-01-07T18:33:00.373Z,9.90
2023-01-07T18:38:05.324Z,9.80
2023-01-07T18:43:12.013Z,9.80
2023-01-07T18:48:20.243Z,9.70
2023-01-07T18:53:27.201Z,9.70
2023-01-07T18:58:30.904Z,9.60
2023-01-07T19:03:34.597Z,9.60
2023-01-07T19:08:40.002Z,9.60
2023-01-07T19:13:43.671Z,9.60
2023-01-07T19:18:47.165Z,9.50
2023-01-07T19:23:52.105Z,9.50
2023-01-07T19:28:55.587Z,9.40
2023-01-07T19:33:59.051Z,9.40
2023-01-07T19:39:03.816Z,9.30
2023-01-07T19:44:07.663Z,9.30
2023-01-07T19:49:13.448Z,9.30
2023-01-07T19:54:18.466Z,9.20
2023-01-07T19:59:22.107Z,9.20
2023-01-07T20:04:27.313Z,9.10
2023-01-07T20:09:32.884Z,9.10
2023-01-07T20:14:36.370Z,9.10
2023-01-07T20:19:39.819Z,9.10
2023-01-07T20:24:46.722Z,9.00
2023-01-07T20:29:50.182Z,8.90
2023-01-07T20:34:53.667Z,8.90
2023-01-07T20:39:58.519Z,8.80
2023-01-07T20:45:01.935Z,8.80
2023-01-07T20:50:06.033Z,8.70
2023-01-07T20:55:11.693Z,8.70
2023-01-07T21:00:17.944Z,8.60
2023-01-07T21:05:23.225Z,8.60
2023-01-07T21:10:28.106Z,8.60
2023-01-07T21:15:32.006Z,8.60
2023-01-07T21:20:35.739Z,8.60
2023-01-07T21:25:40.828Z,8.60
2023-01-07T21:30:44.581Z,8.50
2023-01-07T21:35:50.269Z,8.50
2023-01-07T21:40:55.164Z,8.40
2023-01-07T21:46:00.592Z,8.40
2023-01-07T21:51:05.864Z,8.40
2023-01-07T21:56:12.626Z,8.40
2023-01-07T22:01:17.173Z,8.40
2023-01-07T22:06:22.336Z,8.30
2023-01-07T22:11:27.821Z,8.30
2023-01-07T22:16:33.036Z,8.30
2023-01-07T22:21:37.150Z,8.30
2023-01-07T22:26:43.011Z,8.20
2023-01-07T22:31:49.712Z,8.20
2023-01-07T22:36:58.761Z,8.20
2023-01-07T22:42:07.048Z,8.10
2023-01-07T22:47:14.236Z,8.00
2023-01-07T22:52:19.402Z,8.00
2023-01-07T22:57:24.636Z,7.90
2023-01-07T23:02:28.942Z,7.90
2023-01-07T23:07:32.468Z,7.80
2023-01-07T23:12:37.546Z,7.70
2023-01-07T23:17:41.705Z,7.70
2023-01-07T23:22:45.151Z,7.70
2023-01-07T23:27:51.190Z,7.60
2023-01-07T23:32:54.666Z,7.60
2023-01-07T23:37:58.379Z,7.50
2023-01-07T23:43:04.348Z,7.50
2023-01-07T23:48:08.209Z,7.50
2023-01-07T23:53:11.626Z,7.50
2023-01-07T23:58:16.886Z,7.50
